sensor_id;sensor_type;location;lat;lon;timestamp;temperature;humidity
8709;DHT22;4391;48.678;9.280;2022-11-20T00:01:15;5.30;99.90
8709;DHT22;4391;48.678;9.280;2022-11-20T00:03:43;5.30;99.90
8709;DHT22;4391;48.678;9.280;2022-11-20T00:06:11;5.20;99.90
8709;DHT22;4391;48.678;9.280;2022-11-20T00:08:39;5.20;99.90
8709;DHT22;4391;48.678;9.280;2022-11-20T00:11:07;5.10;99.90
8709;DHT22;4391;48.678;9.280;2022-11-20T00:13:35;5.10;99.90
8709;DHT22;4391;48.678;9.280;2022-11-20T00:16:04;5.10;99.90
8709;DHT22;4391;48.678;9.280;2022-11-20T00:18:34;5.00;99.90
8709;DHT22;4391;48.678;9.280;2022-11-20T00:21:02;5.00;99.90
8709;DHT22;4391;48.678;9.280;2022-11-20T00:23:29;4.90;99.90
8709;DHT22;4391;48.678;9.280;2022-11-20T00:25:55;5.00;99.90
8709;DHT22;4391;48.678;9.280;2022-11-20T00:28:22;4.90;99.90
8709;DHT22;4391;48.678;9.280;2022-11-20T00:30:49;4.90;99.90
8709;DHT22;4391;48.678;9.280;2022-11-20T00:33:16;4.90;99.90
8709;DHT22;4391;48.678;9.280;2022-11-20T00:35:44;4.90;99.90
8709;DHT22;4391;48.678;9.280;2022-11-20T00:38:11;4.90;99.90
8709;DHT22;4391;48.678;9.280;2022-11-20T00:40:38;4.90;99.90
8709;DHT22;4391;48.678;9.280;2022-11-20T00:43:04;4.80;99.90
8709;DHT22;4391;48.678;9.280;2022-11-20T00:45:31;4.80;99.90
8709;DHT22;4391;48.678;9.280;2022-11-20T00:47:58;4.70;99.90
8709;DHT22;4391;48.678;9.280;2022-11-20T00:50:25;4.70;99.90
8709;DHT22;4391;48.678;9.280;2022-11-20T00:52:53;4.60;99.90
8709;DHT22;4391;48.678;9.280;2022-11-20T00:55:20;4.60;99.90
8709;DHT22;4391;48.678;9.280;2022-11-20T00:57:47;4.60;99.90
8709;DHT22;4391;48.678;9.280;2022-11-20T01:00:14;4.60;99.90
8709;DHT22;4391;48.678;9.280;2022-11-20T01:02:41;4.60;99.90
8709;DHT22;4391;48.678;9.280;2022-11-20T01:05:08;4.60;99.90
8709;DHT22;4391;48.678;9.280;2022-11-20T01:07:35;4.70;99.90
8709;DHT22;4391;48.678;9.280;2022-11-20T01:10:03;4.70;99.90
8709;DHT22;4391;48.678;9.280;2022-11-20T01:12:30;4.80;99.90
8709;DHT22;4391;48.678;9.280;2022-11-20T01:14:57;4.80;99.90
8709;DHT22;4391;48.678;9.280;2022-11-20T01:17:24;4.80;99.90
8709;DHT22;4391;48.678;9.280;2022-11-20T01:19:50;4.90;99.90
8709;DHT22;4391;48.678;9.280;2022-11-20T01:22:17;4.90;98.80
8709;DHT22;4391;48.678;9.280;2022-11-20T01:24:44;5.00;95.60
8709;DHT22;4391;48.678;9.280;2022-11-20T01:27:12;5.00;94.00
8709;DHT22;4391;48.678;9.280;2022-11-20T01:29:39;5.10;92.40
8709;DHT22;4391;48.678;9.280;2022-11-20T01:32:06;5.10;92.60
8709;DHT22;4391;48.678;9.280;2022-11-20T01:34:32;5.10;91.50
8709;DHT22;4391;48.678;9.280;2022-11-20T01:36:59;5.20;92.10
8709;DHT22;4391;48.678;9.280;2022-11-20T01:39:26;5.10;91.30
8709;DHT22;4391;48.678;9.280;2022-11-20T01:41:55;5.10;92.30
8709;DHT22;4391;48.678;9.280;2022-11-20T01:44:51;5.10;93.10
8709;DHT22;4391;48.678;9.280;2022-11-20T01:47:26;5.00;93.30
8709;DHT22;4391;48.678;9.280;2022-11-20T01:49:58;5.00;92.10
8709;DHT22;4391;48.678;9.280;2022-11-20T01:52:28;5.00;94.20
8709;DHT22;4391;48.678;9.280;2022-11-20T01:55:02;4.90;97.80
8709;DHT22;4391;48.678;9.280;2022-11-20T01:57:31;4.80;97.80
8709;DHT22;4391;48.678;9.280;2022-11-20T02:00:04;4.80;99.90
8709;DHT22;4391;48.678;9.280;2022-11-20T02:02:32;4.70;99.90
8709;DHT22;4391;48.678;9.280;2022-11-20T02:05:04;4.60;99.90
8709;DHT22;4391;48.678;9.280;2022-11-20T02:07:36;4.60;99.90
8709;DHT22;4391;48.678;9.280;2022-11-20T02:10:04;4.50;99.90
8709;DHT22;4391;48.678;9.280;2022-11-20T02:12:31;4.40;99.90
8709;DHT22;4391;48.678;9.280;2022-11-20T02:15:16;4.50;99.90
8709;DHT22;4391;48.678;9.280;2022-11-20T02:17:43;4.50;99.90
8709;DHT22;4391;48.678;9.280;2022-11-20T02:20:11;4.50;99.90
8709;DHT22;4391;48.678;9.280;2022-11-20T02:22:44;4.50;99.90
8709;DHT22;4391;48.678;9.280;2022-11-20T02:25:17;4.50;99.90
8709;DHT22;4391;48.678;9.280;2022-11-20T02:27:44;4.50;99.90
8709;DHT22;4391;48.678;9.280;2022-11-20T02:30:11;4.50;99.90
8709;DHT22;4391;48.678;9.280;2022-11-20T02:32:38;4.50;99.90
8709;DHT22;4391;48.678;9.280;2022-11-20T02:35:35;4.50;99.90
8709;DHT22;4391;48.678;9.280;2022-11-20T02:37:58;4.60;99.90
8709;DHT22;4391;48.678;9.280;2022-11-20T02:40:27;4.60;99.90
8709;DHT22;4391;48.678;9.280;2022-11-20T02:42:54;4.60;99.90
8709;DHT22;4391;48.678;9.280;2022-11-20T02:45:21;4.70;99.90
8709;DHT22;4391;48.678;9.280;2022-11-20T02:47:48;4.60;99.90
8709;DHT22;4391;48.678;9.280;2022-11-20T02:50:16;4.60;99.90
8709;DHT22;4391;48.678;9.280;2022-11-20T02:52:43;4.60;99.90
8709;DHT22;4391;48.678;9.280;2022-11-20T02:55:10;4.60;99.90
8709;DHT22;4391;48.678;9.280;2022-11-20T02:57:38;4.60;99.90
8709;DHT22;4391;48.678;9.280;2022-11-20T03:00:06;4.70;99.90
8709;DHT22;4391;48.678;9.280;2022-11-20T03:02:34;4.70;99.90
8709;DHT22;4391;48.678;9.280;2022-11-20T03:05:00;4.70;99.90
8709;DHT22;4391;48.678;9.280;2022-11-20T03:07:27;4.60;99.90
8709;DHT22;4391;48.678;9.280;2022-11-20T03:09:54;4.70;99.90
8709;DHT22;4391;48.678;9.280;2022-11-20T03:12:21;4.70;99.90
8709;DHT22;4391;48.678;9.280;2022-11-20T03:14:49;4.60;99.90
8709;DHT22;4391;48.678;9.280;2022-11-20T03:17:16;4.60;99.90
8709;DHT22;4391;48.678;9.280;2022-11-20T03:19:43;4.60;99.90
8709;DHT22;4391;48.678;9.280;2022-11-20T03:22:10;4.50;99.90
8709;DHT22;4391;48.678;9.280;2022-11-20T03:24:36;4.60;99.90
8709;DHT22;4391;48.678;9.280;2022-11-20T03:27:03;4.50;99.90
8709;DHT22;4391;48.678;9.280;2022-11-20T03:29:30;4.50;99.90
8709;DHT22;4391;48.678;9.280;2022-11-20T03:31:59;4.50;99.90
8709;DHT22;4391;48.678;9.280;2022-11-20T03:34:26;4.50;99.90
8709;DHT22;4391;48.678;9.280;2022-11-20T03:36:52;4.50;99.90
8709;DHT22;4391;48.678;9.280;2022-11-20T03:39:19;4.60;99.90
8709;DHT22;4391;48.678;9.280;2022-11-20T03:41:46;4.70;96.10
8709;DHT22;4391;48.678;9.280;2022-11-20T03:44:13;4.70;87.60
8709;DHT22;4391;48.678;9.280;2022-11-20T03:46:40;4.80;80.20
8709;DHT22;4391;48.678;9.280;2022-11-20T03:49:08;4.90;62.80
8709;DHT22;4391;48.678;9.280;2022-11-20T03:51:35;5.00;56.90
8709;DHT22;4391;48.678;9.280;2022-11-20T03:54:04;5.00;53.50
8709;DHT22;4391;48.678;9.280;2022-11-20T03:56:32;5.00;49.20
8709;DHT22;4391;48.678;9.280;2022-11-20T03:59:00;5.00;46.40
8709;DHT22;4391;48.678;9.280;2022-11-20T04:01:28;5.00;44.70
8709;DHT22;4391;48.678;9.280;2022-11-20T04:03:56;5.00;45.40
8709;DHT22;4391;48.678;9.280;2022-11-20T04:06:26;5.00;50.90
8709;DHT22;4391;48.678;9.280;2022-11-20T04:08:54;4.90;55.40
8709;DHT22;4391;48.678;9.280;2022-11-20T04:11:23;4.80;56.70
8709;DHT22;4391;48.678;9.280;2022-11-20T04:13:53;4.70;65.10
8709;DHT22;4391;48.678;9.280;2022-11-20T04:16:21;4.70;68.90
8709;DHT22;4391;48.678;9.280;2022-11-20T04:18:51;4.60;79.70
8709;DHT22;4391;48.678;9.280;2022-11-20T04:21:19;4.50;90.40
8709;DHT22;4391;48.678;9.280;2022-11-20T04:23:47;4.50;91.90
8709;DHT22;4391;48.678;9.280;2022-11-20T04:26:14;4.50;92.40
8709;DHT22;4391;48.678;9.280;2022-11-20T04:28:41;4.50;86.10
8709;DHT22;4391;48.678;9.280;2022-11-20T04:31:09;4.70;81.20
8709;DHT22;4391;48.678;9.280;2022-11-20T04:33:37;4.60;79.50
8709;DHT22;4391;48.678;9.280;2022-11-20T04:36:06;4.50;86.60
8709;DHT22;4391;48.678;9.280;2022-11-20T04:38:33;4.60;84.90
8709;DHT22;4391;48.678;9.280;2022-11-20T04:41:03;4.50;82.10
8709;DHT22;4391;48.678;9.280;2022-11-20T04:43:31;4.50;84.30
8709;DHT22;4391;48.678;9.280;2022-11-20T04:45:59;4.50;86.90
8709;DHT22;4391;48.678;9.280;2022-11-20T04:48:27;4.50;85.50
8709;DHT22;4391;48.678;9.280;2022-11-20T04:50:55;4.40;88.70
8709;DHT22;4391;48.678;9.280;2022-11-20T04:53:22;4.60;88.60
8709;DHT22;4391;48.678;9.280;2022-11-20T04:55:49;4.60;81.00
8709;DHT22;4391;48.678;9.280;2022-11-20T05:00:53;4.70;72.60
8709;DHT22;4391;48.678;9.280;2022-11-20T05:03:20;4.70;72.00
8709;DHT22;4391;48.678;9.280;2022-11-20T05:05:47;4.70;71.00
8709;DHT22;4391;48.678;9.280;2022-11-20T05:08:14;4.80;65.10
8709;DHT22;4391;48.678;9.280;2022-11-20T05:10:40;4.80;58.60
8709;DHT22;4391;48.678;9.280;2022-11-20T05:13:07;4.90;65.50
8709;DHT22;4391;48.678;9.280;2022-11-20T05:15:34;4.90;56.00
8709;DHT22;4391;48.678;9.280;2022-11-20T05:18:02;4.90;52.80
8709;DHT22;4391;48.678;9.280;2022-11-20T05:20:29;5.00;53.50
8709;DHT22;4391;48.678;9.280;2022-11-20T05:22:56;5.00;52.30
8709;DHT22;4391;48.678;9.280;2022-11-20T05:25:23;5.00;42.90
8709;DHT22;4391;48.678;9.280;2022-11-20T05:27:50;5.00;44.80
8709;DHT22;4391;48.678;9.280;2022-11-20T05:30:17;5.00;40.50
8709;DHT22;4391;48.678;9.280;2022-11-20T05:32:44;5.10;44.60
8709;DHT22;4391;48.678;9.280;2022-11-20T05:35:12;5.10;39.60
8709;DHT22;4391;48.678;9.280;2022-11-20T05:37:39;5.10;33.50
8709;DHT22;4391;48.678;9.280;2022-11-20T05:40:07;5.10;33.50
8709;DHT22;4391;48.678;9.280;2022-11-20T05:42:34;5.10;28.10
8709;DHT22;4391;48.678;9.280;2022-11-20T05:45:03;5.10;28.60
8709;DHT22;4391;48.678;9.280;2022-11-20T05:47:33;5.20;26.10
8709;DHT22;4391;48.678;9.280;2022-11-20T05:50:00;5.20;24.90
8709;DHT22;4391;48.678;9.280;2022-11-20T05:52:29;5.20;16.60
8709;DHT22;4391;48.678;9.280;2022-11-20T05:54:57;5.20;24.10
8709;DHT22;4391;48.678;9.280;2022-11-20T05:57:24;5.20;19.80
8709;DHT22;4391;48.678;9.280;2022-11-20T05:59:51;5.20;19.40
8709;DHT22;4391;48.678;9.280;2022-11-20T06:02:18;5.10;21.70
8709;DHT22;4391;48.678;9.280;2022-11-20T06:04:44;5.10;28.00
8709;DHT22;4391;48.678;9.280;2022-11-20T06:07:11;5.10;33.30
8709;DHT22;4391;48.678;9.280;2022-11-20T06:09:39;5.00;38.00
8709;DHT22;4391;48.678;9.280;2022-11-20T06:12:06;5.10;37.30
8709;DHT22;4391;48.678;9.280;2022-11-20T06:14:33;5.10;41.20
8709;DHT22;4391;48.678;9.280;2022-11-20T06:17:00;5.10;29.80
8709;DHT22;4391;48.678;9.280;2022-11-20T06:19:27;5.10;26.30
8709;DHT22;4391;48.678;9.280;2022-11-20T06:21:54;5.20;18.00
8709;DHT22;4391;48.678;9.280;2022-11-20T06:24:21;5.20;17.50
8709;DHT22;4391;48.678;9.280;2022-11-20T06:26:49;5.20;28.80
8709;DHT22;4391;48.678;9.280;2022-11-20T06:29:16;5.10;24.60
8709;DHT22;4391;48.678;9.280;2022-11-20T06:31:43;5.10;28.80
8709;DHT22;4391;48.678;9.280;2022-11-20T06:34:11;5.10;29.40
8709;DHT22;4391;48.678;9.280;2022-11-20T06:36:38;5.10;22.30
8709;DHT22;4391;48.678;9.280;2022-11-20T06:39:05;5.10;24.90
8709;DHT22;4391;48.678;9.280;2022-11-20T06:41:32;5.10;29.00
8709;DHT22;4391;48.678;9.280;2022-11-20T06:44:00;5.10;26.20
8709;DHT22;4391;48.678;9.280;2022-11-20T06:46:27;5.20;25.00
8709;DHT22;4391;48.678;9.280;2022-11-20T06:48:53;5.20;19.70
8709;DHT22;4391;48.678;9.280;2022-11-20T06:51:20;5.20;18.60
8709;DHT22;4391;48.678;9.280;2022-11-20T06:53:48;5.30;14.80
8709;DHT22;4391;48.678;9.280;2022-11-20T06:56:15;5.20;18.30
8709;DHT22;4391;48.678;9.280;2022-11-20T06:58:42;5.20;18.40
8709;DHT22;4391;48.678;9.280;2022-11-20T07:01:12;5.20;16.60
8709;DHT22;4391;48.678;9.280;2022-11-20T07:03:39;5.20;20.00
8709;DHT22;4391;48.678;9.280;2022-11-20T07:06:07;5.20;18.50
8709;DHT22;4391;48.678;9.280;2022-11-20T07:08:34;5.20;21.50
8709;DHT22;4391;48.678;9.280;2022-11-20T07:11:02;5.20;29.60
8709;DHT22;4391;48.678;9.280;2022-11-20T07:13:30;5.20;21.40
8709;DHT22;4391;48.678;9.280;2022-11-20T07:15:59;5.20;19.90
8709;DHT22;4391;48.678;9.280;2022-11-20T07:18:28;5.10;22.60
8709;DHT22;4391;48.678;9.280;2022-11-20T07:20:55;5.10;22.60
8709;DHT22;4391;48.678;9.280;2022-11-20T07:23:22;5.10;20.00
8709;DHT22;4391;48.678;9.280;2022-11-20T07:25:49;5.10;23.80
8709;DHT22;4391;48.678;9.280;2022-11-20T07:28:16;5.10;19.70
8709;DHT22;4391;48.678;9.280;2022-11-20T07:30:48;5.10;26.60
8709;DHT22;4391;48.678;9.280;2022-11-20T07:33:15;5.20;25.60
8709;DHT22;4391;48.678;9.280;2022-11-20T07:35:43;5.20;18.80
8709;DHT22;4391;48.678;9.280;2022-11-20T07:38:10;5.20;19.80
8709;DHT22;4391;48.678;9.280;2022-11-20T07:40:37;5.30;15.10
8709;DHT22;4391;48.678;9.280;2022-11-20T07:43:04;5.20;15.20
8709;DHT22;4391;48.678;9.280;2022-11-20T07:45:31;5.30;15.60
8709;DHT22;4391;48.678;9.280;2022-11-20T07:47:57;5.30;16.50
8709;DHT22;4391;48.678;9.280;2022-11-20T07:50:24;5.40;9.70
8709;DHT22;4391;48.678;9.280;2022-11-20T07:53:00;5.40;13.20
8709;DHT22;4391;48.678;9.280;2022-11-20T07:55:27;5.40;10.50
8709;DHT22;4391;48.678;9.280;2022-11-20T07:57:54;5.40;11.20
8709;DHT22;4391;48.678;9.280;2022-11-20T08:00:22;5.50;5.60
8709;DHT22;4391;48.678;9.280;2022-11-20T08:02:49;5.50;6.70
8709;DHT22;4391;48.678;9.280;2022-11-20T08:05:16;5.60;2.20
8709;DHT22;4391;48.678;9.280;2022-11-20T08:07:44;5.80;1.00
8709;DHT22;4391;48.678;9.280;2022-11-20T08:10:13;5.90;1.00
8709;DHT22;4391;48.678;9.280;2022-11-20T08:12:44;5.90;1.00
8709;DHT22;4391;48.678;9.280;2022-11-20T08:15:28;5.90;1.00
8709;DHT22;4391;48.678;9.280;2022-11-20T08:17:59;5.90;1.00
8709;DHT22;4391;48.678;9.280;2022-11-20T08:20:26;6.00;1.00
8709;DHT22;4391;48.678;9.280;2022-11-20T08:22:57;5.90;1.00
8709;DHT22;4391;48.678;9.280;2022-11-20T08:25:26;6.00;1.00
8709;DHT22;4391;48.678;9.280;2022-11-20T08:27:53;6.00;1.00
8709;DHT22;4391;48.678;9.280;2022-11-20T08:30:20;6.00;1.00
8709;DHT22;4391;48.678;9.280;2022-11-20T08:32:47;6.10;1.00
8709;DHT22;4391;48.678;9.280;2022-11-20T08:35:14;6.10;1.00
8709;DHT22;4391;48.678;9.280;2022-11-20T08:37:41;6.10;1.00
8709;DHT22;4391;48.678;9.280;2022-11-20T08:40:09;6.10;1.00
8709;DHT22;4391;48.678;9.280;2022-11-20T08:42:46;6.10;1.00
8709;DHT22;4391;48.678;9.280;2022-11-20T08:45:13;6.20;1.00
8709;DHT22;4391;48.678;9.280;2022-11-20T08:47:39;6.20;1.00
8709;DHT22;4391;48.678;9.280;2022-11-20T08:50:07;6.20;1.00
8709;DHT22;4391;48.678;9.280;2022-11-20T08:52:34;6.20;1.00
8709;DHT22;4391;48.678;9.280;2022-11-20T08:55:01;6.20;1.00
8709;DHT22;4391;48.678;9.280;2022-11-20T08:57:30;6.20;1.00
8709;DHT22;4391;48.678;9.280;2022-11-20T08:59:58;6.20;1.00
8709;DHT22;4391;48.678;9.280;2022-11-20T09:02:26;6.30;1.00
8709;DHT22;4391;48.678;9.280;2022-11-20T09:04:52;6.40;1.00
8709;DHT22;4391;48.678;9.280;2022-11-20T09:07:20;6.40;1.00
8709;DHT22;4391;48.678;9.280;2022-11-20T09:09:47;6.50;1.00
8709;DHT22;4391;48.678;9.280;2022-11-20T09:12:14;6.50;1.00
8709;DHT22;4391;48.678;9.280;2022-11-20T09:14:41;6.40;1.00
8709;DHT22;4391;48.678;9.280;2022-11-20T09:17:09;6.40;1.00
8709;DHT22;4391;48.678;9.280;2022-11-20T09:19:39;6.50;1.00
8709;DHT22;4391;48.678;9.280;2022-11-20T09:22:05;6.60;1.00
8709;DHT22;4391;48.678;9.280;2022-11-20T09:24:32;6.70;1.00
8709;DHT22;4391;48.678;9.280;2022-11-20T09:27:02;6.80;1.00
8709;DHT22;4391;48.678;9.280;2022-11-20T09:29:29;6.90;1.00
8709;DHT22;4391;48.678;9.280;2022-11-20T09:31:56;6.90;1.00
8709;DHT22;4391;48.678;9.280;2022-11-20T09:34:24;6.80;1.00
8709;DHT22;4391;48.678;9.280;2022-11-20T09:36:51;6.80;1.00
8709;DHT22;4391;48.678;9.280;2022-11-20T09:39:18;6.80;11.00
8709;DHT22;4391;48.678;9.280;2022-11-20T09:42:17;6.70;1.80
8709;DHT22;4391;48.678;9.280;2022-11-20T09:45:03;6.80;1.00
8709;DHT22;4391;48.678;9.280;2022-11-20T09:47:41;6.80;1.00
8709;DHT22;4391;48.678;9.280;2022-11-20T09:50:23;6.80;1.00
8709;DHT22;4391;48.678;9.280;2022-11-20T09:53:02;6.80;5.10
8709;DHT22;4391;48.678;9.280;2022-11-20T09:55:32;6.90;3.40
8709;DHT22;4391;48.678;9.280;2022-11-20T09:58:00;6.80;10.60
8709;DHT22;4391;48.678;9.280;2022-11-20T10:00:28;6.80;1.00
8709;DHT22;4391;48.678;9.280;2022-11-20T10:03:00;6.90;1.00
8709;DHT22;4391;48.678;9.280;2022-11-20T10:05:33;6.90;1.00
8709;DHT22;4391;48.678;9.280;2022-11-20T10:08:09;7.00;1.00
8709;DHT22;4391;48.678;9.280;2022-11-20T10:10:45;7.00;1.00
8709;DHT22;4391;48.678;9.280;2022-11-20T10:13:25;7.10;1.00
8709;DHT22;4391;48.678;9.280;2022-11-20T10:16:03;7.10;1.00
8709;DHT22;4391;48.678;9.280;2022-11-20T10:18:48;7.00;1.00
8709;DHT22;4391;48.678;9.280;2022-11-20T10:21:26;7.00;1.00
8709;DHT22;4391;48.678;9.280;2022-11-20T10:24:05;7.00;1.00
8709;DHT22;4391;48.678;9.280;2022-11-20T10:26:44;7.10;1.00
8709;DHT22;4391;48.678;9.280;2022-11-20T10:29:16;7.10;1.00
8709;DHT22;4391;48.678;9.280;2022-11-20T10:31:44;7.10;1.00
8709;DHT22;4391;48.678;9.280;2022-11-20T10:34:19;7.10;1.00
8709;DHT22;4391;48.678;9.280;2022-11-20T10:36:52;7.10;1.00
8709;DHT22;4391;48.678;9.280;2022-11-20T10:39:27;7.00;8.60
8709;DHT22;4391;48.678;9.280;2022-11-20T10:41:56;6.90;24.40
8709;DHT22;4391;48.678;9.280;2022-11-20T10:44:27;7.00;37.60
8709;DHT22;4391;48.678;9.280;2022-11-20T10:47:14;7.00;27.40
8709;DHT22;4391;48.678;9.280;2022-11-20T10:49:41;7.00;29.30
8709;DHT22;4391;48.678;9.280;2022-11-20T10:52:23;6.90;52.60
8709;DHT22;4391;48.678;9.280;2022-11-20T10:55:01;6.90;54.20
8709;DHT22;4391;48.678;9.280;2022-11-20T10:57:44;6.90;69.50
8709;DHT22;4391;48.678;9.280;2022-11-20T11:00:13;6.90;83.40
8709;DHT22;4391;48.678;9.280;2022-11-20T11:02:46;6.80;57.30
8709;DHT22;4391;48.678;9.280;2022-11-20T11:05:22;6.80;86.20
8709;DHT22;4391;48.678;9.280;2022-11-20T11:07:53;6.80;75.40
8709;DHT22;4391;48.678;9.280;2022-11-20T11:10:24;6.70;75.80
8709;DHT22;4391;48.678;9.280;2022-11-20T11:12:52;6.70;56.60
8709;DHT22;4391;48.678;9.280;2022-11-20T11:15:27;6.70;60.60
8709;DHT22;4391;48.678;9.280;2022-11-20T11:17:55;6.70;56.80
8709;DHT22;4391;48.678;9.280;2022-11-20T11:20:23;6.70;58.90
8709;DHT22;4391;48.678;9.280;2022-11-20T11:22:54;6.90;53.20
8709;DHT22;4391;48.678;9.280;2022-11-20T11:25:29;6.90;40.40
8709;DHT22;4391;48.678;9.280;2022-11-20T11:28:01;7.10;36.40
8709;DHT22;4391;48.678;9.280;2022-11-20T11:30:29;7.20;22.50
8709;DHT22;4391;48.678;9.280;2022-11-20T11:33:05;7.30;10.10
8709;DHT22;4391;48.678;9.280;2022-11-20T11:35:33;7.40;1.00
8709;DHT22;4391;48.678;9.280;2022-11-20T11:38:06;7.60;1.00
8709;DHT22;4391;48.678;9.280;2022-11-20T11:40:35;7.70;1.00
8709;DHT22;4391;48.678;9.280;2022-11-20T11:43:05;7.80;1.00
8709;DHT22;4391;48.678;9.280;2022-11-20T11:45:54;7.90;1.00
8709;DHT22;4391;48.678;9.280;2022-11-20T11:48:20;7.90;1.00
8709;DHT22;4391;48.678;9.280;2022-11-20T11:50:48;8.00;1.00
8709;DHT22;4391;48.678;9.280;2022-11-20T11:53:18;8.00;1.00
8709;DHT22;4391;48.678;9.280;2022-11-20T11:55:49;8.00;1.00
8709;DHT22;4391;48.678;9.280;2022-11-20T11:58:34;7.90;1.00
8709;DHT22;4391;48.678;9.280;2022-11-20T12:01:17;8.00;1.00
8709;DHT22;4391;48.678;9.280;2022-11-20T12:03:55;8.50;1.00
8709;DHT22;4391;48.678;9.280;2022-11-20T12:06:26;9.00;99.90
8709;DHT22;4391;48.678;9.280;2022-11-20T12:09:01;8.90;1.00
8709;DHT22;4391;48.678;9.280;2022-11-20T12:11:33;8.70;1.00
8709;DHT22;4391;48.678;9.280;2022-11-20T12:14:04;8.70;1.00
8709;DHT22;4391;48.678;9.280;2022-11-20T12:16:37;8.90;1.00
8709;DHT22;4391;48.678;9.280;2022-11-20T12:19:08;9.70;99.90
8709;DHT22;4391;48.678;9.280;2022-11-20T12:21:44;11.00;1.00
8709;DHT22;4391;48.678;9.280;2022-11-20T12:24:35;11.30;99.90
8709;DHT22;4391;48.678;9.280;2022-11-20T12:27:22;11.00;99.90
8709;DHT22;4391;48.678;9.280;2022-11-20T12:29:58;10.70;1.00
8709;DHT22;4391;48.678;9.280;2022-11-20T12:32:47;12.50;99.90
8709;DHT22;4391;48.678;9.280;2022-11-20T12:35:40;14.80;1.00
8709;DHT22;4391;48.678;9.280;2022-11-20T12:38:29;14.10;1.00
8709;DHT22;4391;48.678;9.280;2022-11-20T12:41:04;12.30;1.00
8709;DHT22;4391;48.678;9.280;2022-11-20T12:43:41;10.80;6.70
8709;DHT22;4391;48.678;9.280;2022-11-20T12:46:33;9.90;1.00
8709;DHT22;4391;48.678;9.280;2022-11-20T12:49:17;9.40;99.90
8709;DHT22;4391;48.678;9.280;2022-11-20T12:52:02;9.20;99.90
8709;DHT22;4391;48.678;9.280;2022-11-20T12:54:46;9.10;99.90
8709;DHT22;4391;48.678;9.280;2022-11-20T12:57:23;9.00;1.00
8709;DHT22;4391;48.678;9.280;2022-11-20T13:00:10;10.10;99.90
8709;DHT22;4391;48.678;9.280;2022-11-20T13:03:03;12.40;1.00
8709;DHT22;4391;48.678;9.280;2022-11-20T13:05:38;15.30;99.90
8709;DHT22;4391;48.678;9.280;2022-11-20T13:08:16;15.70;99.90
8709;DHT22;4391;48.678;9.280;2022-11-20T13:10:50;14.00;99.90
8709;DHT22;4391;48.678;9.280;2022-11-20T13:13:23;12.80;99.90
8709;DHT22;4391;48.678;9.280;2022-11-20T13:15:55;11.80;1.00
8709;DHT22;4391;48.678;9.280;2022-11-20T13:18:23;10.70;1.00
8709;DHT22;4391;48.678;9.280;2022-11-20T13:20:50;9.80;1.00
8709;DHT22;4391;48.678;9.280;2022-11-20T13:23:24;9.50;99.90
8709;DHT22;4391;48.678;9.280;2022-11-20T13:26:03;10.00;2.90
8709;DHT22;4391;48.678;9.280;2022-11-20T13:28:32;10.40;1.00
8709;DHT22;4391;48.678;9.280;2022-11-20T13:30:59;10.80;1.00
8709;DHT22;4391;48.678;9.280;2022-11-20T13:33:29;10.20;1.00
8709;DHT22;4391;48.678;9.280;2022-11-20T13:35:59;9.50;63.90
8709;DHT22;4391;48.678;9.280;2022-11-20T13:38:26;8.90;99.90
8709;DHT22;4391;48.678;9.280;2022-11-20T13:40:55;8.60;99.90
8709;DHT22;4391;48.678;9.280;2022-11-20T13:43:28;8.70;99.90
8709;DHT22;4391;48.678;9.280;2022-11-20T13:46:01;9.00;1.00
8709;DHT22;4391;48.678;9.280;2022-11-20T13:48:31;9.30;99.90
8709;DHT22;4391;48.678;9.280;2022-11-20T13:51:06;9.50;99.90
8709;DHT22;4391;48.678;9.280;2022-11-20T13:54:00;9.50;99.90
8709;DHT22;4391;48.678;9.280;2022-11-20T13:56:38;9.30;99.90
8709;DHT22;4391;48.678;9.280;2022-11-20T13:59:13;9.20;61.00
8709;DHT22;4391;48.678;9.280;2022-11-20T14:01:46;9.10;99.90
8709;DHT22;4391;48.678;9.280;2022-11-20T14:04:17;8.70;1.00
8709;DHT22;4391;48.678;9.280;2022-11-20T14:06:46;8.50;99.90
8709;DHT22;4391;48.678;9.280;2022-11-20T14:09:26;8.40;99.90
8709;DHT22;4391;48.678;9.280;2022-11-20T14:11:53;8.20;99.90
8709;DHT22;4391;48.678;9.280;2022-11-20T14:14:21;8.10;60.60
8709;DHT22;4391;48.678;9.280;2022-11-20T14:16:53;7.90;1.00
8709;DHT22;4391;48.678;9.280;2022-11-20T14:19:26;7.80;99.90
8709;DHT22;4391;48.678;9.280;2022-11-20T14:22:06;7.70;99.90
8709;DHT22;4391;48.678;9.280;2022-11-20T14:24:33;7.60;1.00
8709;DHT22;4391;48.678;9.280;2022-11-20T14:27:00;7.60;70.40
8709;DHT22;4391;48.678;9.280;2022-11-20T14:29:29;7.50;1.00
8709;DHT22;4391;48.678;9.280;2022-11-20T14:32:01;7.40;99.90
8709;DHT22;4391;48.678;9.280;2022-11-20T14:34:37;7.30;22.70
8709;DHT22;4391;48.678;9.280;2022-11-20T14:37:06;7.20;1.00
8709;DHT22;4391;48.678;9.280;2022-11-20T14:39:40;7.20;99.90
8709;DHT22;4391;48.678;9.280;2022-11-20T14:42:15;7.10;99.90
8709;DHT22;4391;48.678;9.280;2022-11-20T14:44:42;7.20;1.00
8709;DHT22;4391;48.678;9.280;2022-11-20T14:47:12;7.10;1.00
8709;DHT22;4391;48.678;9.280;2022-11-20T14:49:40;7.10;99.90
8709;DHT22;4391;48.678;9.280;2022-11-20T14:52:14;7.10;99.90
8709;DHT22;4391;48.678;9.280;2022-11-20T14:54:46;7.00;99.90
8709;DHT22;4391;48.678;9.280;2022-11-20T14:57:22;7.00;99.90
8709;DHT22;4391;48.678;9.280;2022-11-20T14:59:50;6.90;1.00
8709;DHT22;4391;48.678;9.280;2022-11-20T15:02:18;6.80;99.90
8709;DHT22;4391;48.678;9.280;2022-11-20T15:04:46;6.80;99.90
8709;DHT22;4391;48.678;9.280;2022-11-20T15:07:24;6.70;99.90
8709;DHT22;4391;48.678;9.280;2022-11-20T15:10:04;6.60;99.90
8709;DHT22;4391;48.678;9.280;2022-11-20T15:12:31;6.50;99.90
8709;DHT22;4391;48.678;9.280;2022-11-20T15:14:59;6.50;99.90
8709;DHT22;4391;48.678;9.280;2022-11-20T15:17:28;6.50;99.90
8709;DHT22;4391;48.678;9.280;2022-11-20T15:19:55;6.50;1.00
8709;DHT22;4391;48.678;9.280;2022-11-20T15:22:22;6.50;1.00
8709;DHT22;4391;48.678;9.280;2022-11-20T15:24:49;6.40;1.00
8709;DHT22;4391;48.678;9.280;2022-11-20T15:27:16;6.20;1.00
8709;DHT22;4391;48.678;9.280;2022-11-20T15:29:46;6.10;1.00
8709;DHT22;4391;48.678;9.280;2022-11-20T15:32:12;5.90;14.00
8709;DHT22;4391;48.678;9.280;2022-11-20T15:34:41;5.80;21.30
8709;DHT22;4391;48.678;9.280;2022-11-20T15:37:08;5.70;31.50
8709;DHT22;4391;48.678;9.280;2022-11-20T15:39:35;5.70;42.20
8709;DHT22;4391;48.678;9.280;2022-11-20T15:42:01;5.60;42.00
8709;DHT22;4391;48.678;9.280;2022-11-20T15:44:28;5.60;45.80
8709;DHT22;4391;48.678;9.280;2022-11-20T15:46:55;5.50;46.10
8709;DHT22;4391;48.678;9.280;2022-11-20T15:49:22;5.40;56.00
8709;DHT22;4391;48.678;9.280;2022-11-20T15:51:50;5.30;66.80
8709;DHT22;4391;48.678;9.280;2022-11-20T15:54:20;5.20;83.60
8709;DHT22;4391;48.678;9.280;2022-11-20T15:56:48;5.10;86.00
8709;DHT22;4391;48.678;9.280;2022-11-20T15:59:15;5.10;86.40
8709;DHT22;4391;48.678;9.280;2022-11-20T16:01:42;5.00;83.40
8709;DHT22;4391;48.678;9.280;2022-11-20T16:04:10;4.90;87.10
8709;DHT22;4391;48.678;9.280;2022-11-20T16:06:37;5.00;82.50
8709;DHT22;4391;48.678;9.280;2022-11-20T16:09:06;5.00;87.40
8709;DHT22;4391;48.678;9.280;2022-11-20T16:11:33;5.10;63.10
8709;DHT22;4391;48.678;9.280;2022-11-20T16:14:00;5.20;55.60
8709;DHT22;4391;48.678;9.280;2022-11-20T16:16:45;5.30;46.00
8709;DHT22;4391;48.678;9.280;2022-11-20T16:19:13;5.40;43.20
8709;DHT22;4391;48.678;9.280;2022-11-20T16:21:40;5.40;34.80
8709;DHT22;4391;48.678;9.280;2022-11-20T16:24:11;5.50;26.30
8709;DHT22;4391;48.678;9.280;2022-11-20T16:26:39;5.60;25.80
8709;DHT22;4391;48.678;9.280;2022-11-20T16:29:09;5.60;25.20
8709;DHT22;4391;48.678;9.280;2022-11-20T16:31:37;5.60;22.50
8709;DHT22;4391;48.678;9.280;2022-11-20T16:34:05;5.60;20.30
8709;DHT22;4391;48.678;9.280;2022-11-20T16:36:35;5.60;24.80
8709;DHT22;4391;48.678;9.280;2022-11-20T16:39:06;5.70;22.10
8709;DHT22;4391;48.678;9.280;2022-11-20T16:41:35;5.60;19.20
8709;DHT22;4391;48.678;9.280;2022-11-20T16:44:06;5.60;30.00